createdAt,value
2023-11-08T00:00:19.862Z,94.93
2023-11-08T00:01:19.846Z,94.62
2023-11-08T00:02:19.849Z,95.34
2023-11-08T00:03:19.934Z,95.44
2023-11-08T00:04:19.899Z,95.75
2023-11-08T00:05:19.807Z,95.59
2023-11-08T00:06:19.854Z,95.18
2023-11-08T00:07:19.788Z,93.90
2023-11-08T00:08:19.796Z,93.90
2023-11-08T00:09:19.808Z,95.54
2023-11-08T00:10:19.760Z,96.57
2023-11-08T00:11:19.756Z,95.44
2023-11-08T00:12:19.804Z,96.37
2023-11-08T00:13:19.771Z,95.03
2023-11-08T00:14:19.781Z,96.72
2023-11-08T00:15:19.729Z,94.73
2023-11-08T00:16:19.760Z,97.13
2023-11-08T00:17:19.787Z,96.78
2023-11-08T00:18:19.877Z,95.75
2023-11-08T00:19:19.771Z,95.24
2023-11-08T00:20:19.702Z,95.34
2023-11-08T00:21:19.753Z,95.24
2023-11-08T00:22:19.703Z,95.65
2023-11-08T00:23:20.721Z,96.98
2023-11-08T00:24:19.779Z,96.98
2023-11-08T00:25:19.709Z,96.78
2023-11-08T00:26:19.768Z,95.07
2023-11-08T00:27:19.711Z,95.54
2023-11-08T00:28:19.673Z,95.75
2023-11-08T00:29:19.687Z,95.54
2023-11-08T00:30:19.688Z,95.65
2023-11-08T00:31:19.645Z,94.32
2023-11-08T00:32:19.658Z,93.86
2023-11-08T00:33:19.679Z,93.90
2023-11-08T00:34:19.648Z,93.49
2023-11-08T00:35:19.661Z,92.68
2023-11-08T00:36:19.668Z,92.32
2023-11-08T00:37:19.765Z,92.63
2023-11-08T00:38:19.641Z,93.80
2023-11-08T00:39:20.098Z,93.80
2023-11-08T00:40:19.648Z,94.52
2023-11-08T00:41:19.621Z,95.24
2023-11-08T00:42:19.667Z,95.20
2023-11-08T00:43:19.734Z,94.83
2023-11-08T00:44:19.603Z,96.37
2023-11-08T00:45:19.606Z,96.57
2023-11-08T00:46:19.577Z,94.56
2023-11-08T00:47:19.571Z,94.93
2023-11-08T00:48:19.637Z,94.98
2023-11-08T00:49:20.679Z,95.03
2023-11-08T00:50:19.570Z,94.93
2023-11-08T00:51:19.577Z,95.24
2023-11-08T00:52:19.561Z,94.93
2023-11-08T00:53:19.546Z,96.10
2023-11-08T00:54:19.558Z,95.79
2023-11-08T00:55:19.537Z,97.03
2023-11-08T00:56:19.546Z,96.57
2023-11-08T00:57:19.628Z,96.57
2023-11-08T00:58:19.555Z,96.67
2023-11-08T00:59:19.553Z,96.37
2023-11-08T01:00:19.521Z,96.88
2023-11-08T01:01:19.548Z,96.22
2023-11-08T01:02:19.526Z,93.90
2023-11-08T01:03:19.622Z,92.47
2023-11-08T01:04:19.762Z,94.01
2023-11-08T01:05:19.502Z,94.73
2023-11-08T01:06:19.545Z,95.14
2023-11-08T01:07:19.506Z,95.44
2023-11-08T01:08:19.495Z,96.57
2023-11-08T01:09:19.553Z,94.93
2023-11-08T01:10:19.458Z,95.24
2023-11-08T01:11:19.450Z,95.03
2023-11-08T01:12:19.479Z,94.68
2023-11-08T01:13:19.477Z,94.37
2023-11-08T01:14:19.438Z,94.27
2023-11-08T01:15:20.535Z,94.37
2023-11-08T01:16:19.429Z,94.58
2023-11-08T01:17:19.435Z,94.78
2023-11-08T01:18:19.518Z,94.78
2023-11-08T01:19:19.419Z,95.50
2023-11-08T01:20:19.412Z,95.29
2023-11-08T01:21:19.537Z,94.17
2023-11-08T01:22:19.434Z,93.66
2023-11-08T01:23:19.414Z,94.58
2023-11-08T01:24:19.456Z,94.89
2023-11-08T01:25:19.415Z,95.61
2023-11-08T01:26:19.420Z,96.28
2023-11-08T01:27:19.437Z,95.29
2023-11-08T01:28:19.384Z,95.61
2023-11-08T01:29:19.389Z,96.94
2023-11-08T01:30:19.453Z,96.63
2023-11-08T01:31:19.365Z,97.04
2023-11-08T01:32:19.355Z,96.58
2023-11-08T01:33:19.526Z,96.73
2023-11-08T01:34:19.440Z,96.58
2023-11-08T01:35:19.343Z,96.28
2023-11-08T01:36:19.438Z,95.81
2023-11-08T01:37:19.309Z,96.94
2023-11-08T01:38:19.345Z,96.57
2023-11-08T01:39:19.333Z,97.04
2023-11-08T01:40:19.405Z,96.98
2023-11-08T01:41:19.343Z,95.65
2023-11-08T01:42:19.315Z,94.62
2023-11-08T01:43:19.291Z,94.21
2023-11-08T01:44:19.305Z,94.62
2023-11-08T01:45:19.354Z,94.58
2023-11-08T01:46:19.291Z,95.20
2023-11-08T01:47:19.277Z,94.48
2023-11-08T01:48:19.370Z,95.54
2023-11-08T01:49:19.473Z,96.94
2023-11-08T01:50:19.314Z,97.60
2023-11-08T01:51:19.275Z,97.39
2023-11-08T01:52:19.271Z,97.70
2023-11-08T01:53:19.242Z,96.67
2023-11-08T01:54:19.286Z,96.37
2023-11-08T01:55:19.257Z,96.22
2023-11-08T01:56:19.289Z,96.12
2023-11-08T01:57:19.374Z,96.42
2023-11-08T01:58:19.324Z,96.57
2023-11-08T01:59:19.421Z,96.67
2023-11-08T02:00:19.255Z,96.67
2023-11-08T02:01:19.284Z,96.88
2023-11-08T02:02:19.316Z,97.39
2023-11-08T02:03:19.192Z,97.08
2023-11-08T02:04:19.377Z,96.98
2023-11-08T02:05:20.241Z,97.34
2023-11-08T02:06:19.227Z,96.88
2023-11-08T02:07:19.193Z,96.57
2023-11-08T02:08:19.173Z,98.00
2023-11-08T02:09:19.216Z,98.62
2023-11-08T02:10:20.199Z,98.72
2023-11-08T02:11:19.168Z,97.39
2023-11-08T02:12:19.196Z,97.08
2023-11-08T02:13:19.152Z,96.88
2023-11-08T02:14:19.153Z,96.83
2023-11-08T02:15:19.195Z,95.95
2023-11-08T02:16:19.265Z,94.48
2023-11-08T02:17:19.126Z,94.68
2023-11-08T02:18:19.154Z,95.91
2023-11-08T02:19:19.145Z,97.04
2023-11-08T02:20:19.134Z,96.67
2023-11-08T02:21:19.414Z,97.23
2023-11-08T02:22:19.094Z,96.47
2023-11-08T02:23:19.110Z,94.67
2023-11-08T02:24:19.151Z,95.03
2023-11-08T02:25:19.060Z,96.37
2023-11-08T02:26:19.073Z,95.34
2023-11-08T02:27:19.133Z,94.73
2023-11-08T02:28:19.045Z,94.62
2023-11-08T02:29:19.209Z,94.62
2023-11-08T02:30:19.084Z,96.47
2023-11-08T02:31:19.078Z,96.78
2023-11-08T02:32:19.184Z,97.19
2023-11-08T02:33:19.096Z,96.78
2023-11-08T02:34:19.103Z,96.67
2023-11-08T02:35:19.050Z,96.98
2023-11-08T02:36:19.075Z,95.86
2023-11-08T02:37:19.035Z,96.32
2023-11-08T02:38:19.054Z,96.78
2023-11-08T02:39:19.034Z,96.57
2023-11-08T02:40:19.017Z,96.47
2023-11-08T02:41:18.980Z,96.98
2023-11-08T02:42:19.012Z,95.14
2023-11-08T02:43:19.114Z,95.24
2023-11-08T02:44:18.983Z,94.11
2023-11-08T02:45:18.997Z,95.03
2023-11-08T02:46:18.957Z,94.52
2023-11-08T02:47:18.952Z,94.73
2023-11-08T02:48:19.009Z,94.21
2023-11-08T02:49:18.983Z,94.83
2023-11-08T02:50:18.980Z,96.31
2023-11-08T02:51:18.975Z,96.82
2023-11-08T02:52:18.973Z,96.31
2023-11-08T02:53:18.919Z,96.51
2023-11-08T02:54:19.053Z,96.62
2023-11-08T02:55:18.956Z,96.72
2023-11-08T02:56:18.987Z,96.92
2023-11-08T02:57:18.890Z,96.92
2023-11-08T02:58:19.926Z,96.82
2023-11-08T02:59:18.902Z,97.03
2023-11-08T03:00:18.963Z,96.41
2023-11-08T03:01:18.917Z,96.62
2023-11-08T03:02:18.877Z,96.41
2023-11-08T03:03:18.956Z,96.57
2023-11-08T03:04:18.931Z,96.72
2023-11-08T03:05:18.975Z,95.59
2023-11-08T03:06:18.953Z,94.01
2023-11-08T03:07:18.882Z,95.34
2023-11-08T03:08:18.840Z,96.78
2023-11-08T03:09:19.907Z,96.98
2023-11-08T03:10:18.921Z,96.82
2023-11-08T03:11:18.945Z,96.67
2023-11-08T03:12:18.851Z,95.69
2023-11-08T03:13:18.834Z,94.15
2023-11-08T03:14:18.820Z,94.83
2023-11-08T03:15:18.891Z,95.54
2023-11-08T03:16:18.882Z,94.83
2023-11-08T03:17:18.840Z,95.39
2023-11-08T03:18:18.882Z,95.14
2023-11-08T03:19:18.970Z,96.00
2023-11-08T03:20:18.784Z,96.16
2023-11-08T03:21:18.821Z,96.62
2023-11-08T03:22:18.800Z,96.92
2023-11-08T03:23:18.803Z,95.69
2023-11-08T03:24:18.798Z,96.82
2023-11-08T03:25:19.254Z,95.54
2023-11-08T03:26:18.829Z,94.11
2023-11-08T03:27:18.800Z,92.88
2023-11-08T03:28:18.765Z,91.86
2023-11-08T03:29:18.732Z,93.29
2023-11-08T03:30:18.807Z,93.39
2023-11-08T03:31:18.787Z,92.36
2023-11-08T03:32:18.717Z,93.76
2023-11-08T03:33:18.901Z,93.29
2023-11-08T03:34:18.820Z,92.88
2023-11-08T03:35:18.700Z,94.11
2023-11-08T03:36:18.729Z,93.90
2023-11-08T03:37:18.686Z,94.48
2023-11-08T03:38:18.724Z,94.11
2023-11-08T03:39:18.691Z,94.93
2023-11-08T03:40:18.695Z,94.32
2023-11-08T03:41:18.684Z,93.70
2023-11-08T03:42:18.750Z,93.90
2023-11-08T03:43:18.679Z,94.21
2023-11-08T03:44:19.676Z,94.52
2023-11-08T03:45:18.682Z,94.73
2023-11-08T03:46:18.646Z,93.90
2023-11-08T03:47:18.674Z,94.21
2023-11-08T03:48:18.765Z,93.39
2023-11-08T03:49:18.751Z,92.31
2023-11-08T03:50:18.638Z,92.36
2023-11-08T03:51:18.646Z,93.90
2023-11-08T03:52:18.618Z,93.86
2023-11-08T03:53:18.646Z,94.73
2023-11-08T03:54:18.626Z,94.93
2023-11-08T03:55:18.593Z,94.42
2023-11-08T03:56:18.628Z,95.14
2023-11-08T03:57:19.453Z,94.62
2023-11-08T03:58:18.604Z,95.24
2023-11-08T03:59:18.605Z,94.73
2023-11-08T04:00:18.620Z,92.72
2023-11-08T04:01:18.632Z,92.57
2023-11-08T04:02:18.574Z,92.27
2023-11-08T04:03:18.598Z,93.85
2023-11-08T04:04:18.617Z,93.90
2023-11-08T04:05:18.595Z,95.03
2023-11-08T04:06:18.621Z,93.90
2023-11-08T04:07:18.630Z,93.70
2023-11-08T04:08:18.529Z,94.26
2023-11-08T04:09:18.594Z,94.52
2023-11-08T04:10:18.549Z,95.54
2023-11-08T04:11:18.557Z,96.98
2023-11-08T04:12:18.568Z,96.20
2023-11-08T04:13:18.526Z,96.47
2023-11-08T04:14:18.576Z,96.62
2023-11-08T04:15:18.527Z,96.37
2023-11-08T04:16:18.515Z,96.78
2023-11-08T04:17:18.515Z,95.44
2023-11-08T04:18:18.518Z,94.52
2023-11-08T04:19:18.536Z,95.44
2023-11-08T04:20:18.469Z,96.37
2023-11-08T04:21:18.493Z,94.98
2023-11-08T04:22:18.481Z,95.18
2023-11-08T04:23:18.500Z,95.54
2023-11-08T04:24:18.511Z,96.98
2023-11-08T04:25:18.488Z,94.93
2023-11-08T04:26:18.429Z,94.67
2023-11-08T04:27:18.487Z,94.83
2023-11-08T04:28:18.424Z,95.59
2023-11-08T04:29:18.464Z,95.07
2023-11-08T04:30:18.439Z,95.59
2023-11-08T04:31:18.435Z,95.65
2023-11-08T04:32:18.419Z,95.44
2023-11-08T04:33:18.412Z,95.54
2023-11-08T04:34:18.526Z,96.10
2023-11-08T04:35:18.453Z,95.03
2023-11-08T04:36:18.552Z,93.64
2023-11-08T04:37:18.385Z,95.18
2023-11-08T04:38:18.398Z,95.79
2023-11-08T04:39:18.413Z,95.79
2023-11-08T04:40:18.393Z,95.59
2023-11-08T04:41:18.370Z,95.28
2023-11-08T04:42:18.416Z,94.52
2023-11-08T04:43:18.386Z,94.93
2023-11-08T04:44:18.405Z,94.42
2023-11-08T04:45:20.233Z,94.98
2023-11-08T04:46:19.323Z,94.93
2023-11-08T04:47:18.363Z,95.54
2023-11-08T04:48:18.392Z,95.65
2023-11-08T04:49:19.110Z,94.62
2023-11-08T04:50:18.322Z,94.73
2023-11-08T04:51:18.419Z,94.01
2023-11-08T04:52:18.299Z,94.62
2023-11-08T04:53:18.295Z,93.90
2023-11-08T04:54:18.332Z,94.01
2023-11-08T04:55:18.438Z,93.74
2023-11-08T04:56:18.309Z,93.49
2023-11-08T04:57:18.309Z,92.98
2023-11-08T04:58:18.331Z,93.70
2023-11-08T04:59:18.327Z,95.34
2023-11-08T05:00:18.299Z,95.03
2023-11-08T05:01:18.262Z,96.88
2023-11-08T05:02:18.266Z,96.57
2023-11-08T05:03:18.275Z,96.26
2023-11-08T05:04:18.285Z,96.37
2023-11-08T05:05:18.255Z,96.78
2023-11-08T05:06:18.445Z,96.67
2023-11-08T05:07:18.363Z,96.78
2023-11-08T05:08:18.234Z,96.92
2023-11-08T05:09:18.350Z,97.29
2023-11-08T05:10:18.263Z,97.64
2023-11-08T05:11:18.237Z,97.70
2023-11-08T05:12:18.318Z,97.44
2023-11-08T05:13:18.227Z,97.74
2023-11-08T05:14:18.204Z,97.64
2023-11-08T05:15:18.269Z,97.13
2023-11-08T05:16:18.190Z,98.97
2023-11-08T05:17:18.366Z,98.77
2023-11-08T05:18:18.262Z,97.33
2023-11-08T05:19:18.288Z,98.77
2023-11-08T05:20:18.204Z,98.46
2023-11-08T05:21:18.200Z,98.87
2023-11-08T05:22:18.138Z,98.11
2023-11-08T05:23:18.147Z,94.98
2023-11-08T05:24:18.195Z,96.51
2023-11-08T05:25:18.180Z,96.82
2023-11-08T05:26:18.159Z,96.87
2023-11-08T05:27:18.144Z,96.62
2023-11-08T05:28:18.160Z,97.03
2023-11-08T05:29:18.146Z,96.10
2023-11-08T05:30:18.118Z,94.98
2023-11-08T05:31:18.179Z,95.28
2023-11-08T05:32:18.125Z,94.46
2023-11-08T05:33:18.156Z,94.62
2023-11-08T05:34:18.202Z,96.16
2023-11-08T05:35:18.082Z,96.00
2023-11-08T05:36:18.190Z,96.62
2023-11-08T05:37:18.079Z,96.88
2023-11-08T05:38:18.052Z,96.72
2023-11-08T05:39:18.113Z,97.33
2023-11-08T05:40:18.089Z,96.92
2023-11-08T05:41:18.141Z,98.77
2023-11-08T05:42:18.131Z,97.74
2023-11-08T05:43:18.100Z,98.36
2023-11-08T05:44:18.068Z,96.88
2023-11-08T05:45:18.045Z,97.49
2023-11-08T05:46:18.061Z,98.52
2023-11-08T05:47:18.064Z,96.72
2023-11-08T05:48:18.375Z,96.82
2023-11-08T05:49:18.048Z,96.67
2023-11-08T05:50:18.028Z,97.39
2023-11-08T05:51:18.057Z,97.49
2023-11-08T05:52:19.319Z,96.88
2023-11-08T05:53:18.022Z,95.07
2023-11-08T05:54:18.028Z,95.07
2023-11-08T05:55:18.002Z,95.69
2023-11-08T05:56:18.007Z,97.33
2023-11-08T05:57:17.981Z,96.62
2023-11-08T05:58:17.977Z,96.72
2023-11-08T05:59:17.954Z,96.98
2023-11-08T06:00:18.136Z,97.74
2023-11-08T06:01:17.987Z,97.49
2023-11-08T06:02:17.984Z,97.19
2023-11-08T06:03:18.016Z,97.65
2023-11-08T06:04:17.980Z,98.52
2023-11-08T06:05:18.058Z,97.19
2023-11-08T06:06:18.120Z,97.39
2023-11-08T06:07:17.979Z,97.70
2023-11-08T06:08:17.960Z,98.52
2023-11-08T06:09:18.003Z,98.83
2023-11-08T06:10:17.911Z,99.03
2023-11-08T06:11:17.931Z,99.08
2023-11-08T06:12:18.046Z,98.97
2023-11-08T06:13:17.911Z,99.18
2023-11-08T06:14:17.905Z,99.28
2023-11-08T06:15:17.976Z,98.97
2023-11-08T06:16:17.871Z,98.42
2023-11-08T06:17:17.877Z,98.72
2023-11-08T06:18:17.916Z,98.67
2023-11-08T06:19:20.185Z,98.52
2023-11-08T06:20:17.898Z,99.34
2023-11-08T06:21:17.893Z,99.65
2023-11-08T06:22:17.886Z,99.85
2023-11-08T06:23:17.879Z,99.99
2023-11-08T06:24:17.959Z,99.08
2023-11-08T06:25:17.831Z,99.90
2023-11-08T06:26:17.919Z,99.99
2023-11-08T06:27:17.836Z,99.99
2023-11-08T06:28:17.850Z,99.99
2023-11-08T06:29:17.820Z,99.99
2023-11-08T06:30:17.816Z,99.99
2023-11-08T06:31:17.855Z,99.99
2023-11-08T06:32:25.572Z,99.99
2023-11-08T06:33:17.791Z,99.99
2023-11-08T06:34:17.856Z,99.99
2023-11-08T06:35:17.763Z,99.99
2023-11-08T06:36:17.766Z,99.99
2023-11-08T06:37:17.781Z,99.99
2023-11-08T06:38:17.755Z,99.99
2023-11-08T06:39:17.756Z,99.99
2023-11-08T06:40:17.763Z,99.99
2023-11-08T06:41:17.774Z,99.99
2023-11-08T06:42:17.759Z,99.99
2023-11-08T06:43:17.722Z,99.99
2023-11-08T06:44:17.757Z,99.99
2023-11-08T06:45:17.722Z,99.99
2023-11-08T06:46:17.759Z,99.99
2023-11-08T06:47:17.761Z,98.83
2023-11-08T06:48:17.736Z,98.62
2023-11-08T06:49:19.221Z,98.00
2023-11-08T06:50:17.729Z,97.44
2023-11-08T06:51:17.713Z,98.36
2023-11-08T06:52:17.697Z,99.08
2023-11-08T06:53:17.693Z,97.70
2023-11-08T06:54:17.719Z,97.64
2023-11-08T06:55:23.231Z,97.64
2023-11-08T06:56:19.720Z,98.62
2023-11-08T06:57:17.705Z,99.03
2023-11-08T06:58:17.639Z,99.34
2023-11-08T06:59:17.655Z,99.99
2023-11-08T07:00:17.660Z,99.90
2023-11-08T07:01:17.678Z,99.24
2023-11-08T07:02:17.658Z,99.99
2023-11-08T07:03:17.608Z,99.99
2023-11-08T07:04:17.700Z,99.99
2023-11-08T07:05:24.789Z,99.99
2023-11-08T07:06:18.622Z,99.99
2023-11-08T07:07:17.638Z,99.99
2023-11-08T07:08:17.654Z,99.99
2023-11-08T07:09:17.595Z,99.99
2023-11-08T07:10:17.582Z,99.50
2023-11-08T07:11:17.642Z,99.19
2023-11-08T07:12:17.735Z,99.19
2023-11-08T07:13:17.614Z,99.29
2023-11-08T07:14:17.569Z,99.44
2023-11-08T07:15:50.524Z,99.40
2023-11-08T07:16:17.550Z,99.65
2023-11-08T07:17:17.630Z,99.19
2023-11-08T07:18:17.581Z,97.86
2023-11-08T07:19:17.643Z,97.34
2023-11-08T07:20:18.070Z,96.83
2023-11-08T07:21:17.526Z,96.83
2023-11-08T07:22:17.532Z,96.53
2023-11-08T07:23:17.664Z,96.83
2023-11-08T07:24:17.535Z,97.04
2023-11-08T07:25:17.564Z,97.65
2023-11-08T07:26:17.512Z,98.42
2023-11-08T07:27:19.838Z,97.55
2023-11-08T07:28:18.616Z,97.65
2023-11-08T07:29:17.517Z,98.47
2023-11-08T07:30:17.491Z,97.60
2023-11-08T07:31:17.505Z,98.99
2023-11-08T07:32:17.484Z,99.24
2023-11-08T07:33:17.477Z,98.68
2023-11-08T07:34:17.545Z,96.63
2023-11-08T07:35:17.472Z,96.63
2023-11-08T07:36:17.499Z,97.65
2023-11-08T07:37:17.476Z,97.08
2023-11-08T07:38:17.469Z,97.45
2023-11-08T07:39:26.873Z,95.70
2023-11-08T07:40:18.461Z,94.58
2023-11-08T07:41:17.452Z,95.15
2023-11-08T07:42:17.424Z,95.29
2023-11-08T07:43:17.443Z,94.58
2023-11-08T07:44:17.449Z,94.48
2023-11-08T07:45:17.412Z,96.89
2023-11-08T07:46:17.438Z,96.17
2023-11-08T07:47:17.398Z,95.36
2023-11-08T07:48:17.422Z,96.79
2023-11-08T07:49:17.674Z,97.30
2023-11-08T07:50:17.395Z,97.09
2023-11-08T07:51:17.374Z,97.20
2023-11-08T07:52:17.382Z,97.40
2023-11-08T07:53:17.388Z,97.91
2023-11-08T07:54:17.384Z,98.69
2023-11-08T07:55:18.386Z,95.97
2023-11-08T07:56:17.359Z,95.66
2023-11-08T07:57:17.356Z,94.95
2023-11-08T07:58:17.338Z,93.51
2023-11-08T07:59:17.362Z,93.71
2023-11-08T08:00:17.399Z,96.58
2023-11-08T08:01:18.631Z,94.54
2023-11-08T08:02:17.325Z,94.95
2023-11-08T08:03:17.359Z,94.43
2023-11-08T08:04:17.408Z,93.30
2023-11-08T08:05:17.312Z,95.51
2023-11-08T08:06:17.312Z,95.51
2023-11-08T08:07:17.333Z,96.23
2023-11-08T08:08:17.326Z,93.57
2023-11-08T08:09:17.309Z,93.67
2023-11-08T08:10:17.302Z,92.40
2023-11-08T08:11:17.299Z,93.32
2023-11-08T08:12:17.286Z,93.52
2023-11-08T08:13:24.189Z,93.67
2023-11-08T08:14:19.276Z,94.18
2023-11-08T08:15:17.268Z,93.52
2023-11-08T08:16:17.300Z,92.24
2023-11-08T08:17:17.275Z,91.73
2023-11-08T08:18:17.308Z,91.11
2023-11-08T08:19:17.336Z,93.00
2023-11-08T08:20:17.234Z,93.77
2023-11-08T08:21:17.207Z,93.71
2023-11-08T08:22:17.234Z,94.95
2023-11-08T08:23:17.246Z,95.46
2023-11-08T08:24:17.200Z,95.46
2023-11-08T08:25:17.235Z,95.82
2023-11-08T08:26:17.278Z,94.49
2023-11-08T08:27:17.177Z,95.82
2023-11-08T08:28:17.219Z,93.37
2023-11-08T08:29:17.203Z,94.54
2023-11-08T08:30:17.195Z,94.90
2023-11-08T08:31:17.176Z,94.80
2023-11-08T08:32:17.146Z,95.15
2023-11-08T08:33:17.141Z,95.25
2023-11-08T08:34:23.180Z,95.25
2023-11-08T08:35:18.157Z,95.36
2023-11-08T08:36:17.203Z,96.58
2023-11-08T08:37:17.135Z,96.48
2023-11-08T08:38:17.135Z,95.46
2023-11-08T08:39:17.146Z,95.00
2023-11-08T08:40:17.108Z,94.39
2023-11-08T08:41:17.117Z,94.59
2023-11-08T08:42:17.956Z,92.65
2023-11-08T08:43:17.089Z,91.93
2023-11-08T08:44:17.096Z,92.24
2023-11-08T08:45:17.146Z,93.77
2023-11-08T08:46:17.126Z,92.14
2023-11-08T08:47:17.090Z,92.75
2023-11-08T08:48:17.168Z,93.01
2023-11-08T08:49:19.905Z,93.77
2023-11-08T08:50:18.224Z,94.08
2023-11-08T08:51:17.045Z,93.37
2023-11-08T08:52:17.070Z,92.75
2023-11-08T08:53:17.053Z,92.44
2023-11-08T08:54:17.031Z,92.96
2023-11-08T08:55:17.043Z,94.95
2023-11-08T08:56:17.096Z,95.15
2023-11-08T08:57:17.057Z,96.13
2023-11-08T08:58:17.928Z,95.62
2023-11-08T08:59:17.017Z,95.31
2023-11-08T09:00:17.067Z,93.06
2023-11-08T09:01:17.034Z,93.51
2023-11-08T09:02:17.036Z,92.65
2023-11-08T09:03:17.062Z,93.16
2023-11-08T09:04:17.086Z,93.62
2023-11-08T09:05:17.006Z,95.31
2023-11-08T09:06:17.074Z,95.41
2023-11-08T09:07:17.009Z,96.38
2023-11-08T09:08:16.977Z,95.66
2023-11-08T09:09:17.003Z,96.58
2023-11-08T09:10:16.967Z,94.78
2023-11-08T09:11:17.982Z,94.99
2023-11-08T09:12:16.948Z,94.89
2023-11-08T09:13:16.963Z,93.82
2023-11-08T09:14:16.932Z,93.62
2023-11-08T09:15:16.956Z,93.62
2023-11-08T09:16:16.960Z,93.62
2023-11-08T09:17:16.932Z,93.92
2023-11-08T09:18:16.970Z,96.89
2023-11-08T09:19:16.994Z,96.79
2023-11-08T09:20:16.916Z,96.48
2023-11-08T09:21:16.945Z,96.79
2023-11-08T09:22:16.901Z,96.89
2023-11-08T09:23:16.889Z,96.79
2023-11-08T09:24:16.882Z,94.43
2023-11-08T09:25:16.921Z,94.95
2023-11-08T09:26:16.875Z,95.56
2023-11-08T09:27:16.896Z,96.17
2023-11-08T09:28:16.888Z,95.25
2023-11-08T09:29:16.879Z,95.46
2023-11-08T09:30:16.910Z,96.38
2023-11-08T09:31:16.892Z,96.83
2023-11-08T09:32:16.857Z,95.36
2023-11-08T09:33:16.821Z,94.99
2023-11-08T09:34:16.901Z,94.33
2023-11-08T09:35:16.967Z,93.51
2023-11-08T09:36:16.835Z,93.41
2023-11-08T09:37:16.807Z,93.57
2023-11-08T09:38:16.807Z,93.62
2023-11-08T09:39:16.827Z,93.47
2023-11-08T09:40:16.827Z,93.32
2023-11-08T09:41:16.835Z,94.55
2023-11-08T09:42:16.777Z,94.24
2023-11-08T09:43:16.813Z,93.63
2023-11-08T09:44:16.785Z,92.71
2023-11-08T09:45:16.803Z,94.14
2023-11-08T09:46:16.771Z,92.50
2023-11-08T09:47:16.752Z,91.58
2023-11-08T09:48:16.774Z,92.05
2023-11-08T09:49:16.961Z,93.69
2023-11-08T09:50:16.811Z,93.89
2023-11-08T09:51:16.801Z,91.58
2023-11-08T09:52:16.744Z,92.30
2023-11-08T09:53:16.746Z,92.91
2023-11-08T09:54:16.796Z,92.91
2023-11-08T09:55:17.642Z,92.46
2023-11-08T09:56:16.725Z,93.28
2023-11-08T09:57:16.722Z,92.56
2023-11-08T09:58:16.700Z,93.73
2023-11-08T09:59:16.749Z,93.69
2023-11-08T10:00:16.740Z,93.73
2023-11-08T10:01:16.717Z,92.50
2023-11-08T10:02:16.713Z,92.40
2023-11-08T10:03:16.813Z,93.52
2023-11-08T10:04:20.339Z,93.52
2023-11-08T10:05:16.913Z,93.01
2023-11-08T10:06:17.243Z,90.86
2023-11-08T10:07:16.776Z,92.19
2023-11-08T10:08:16.650Z,91.48
2023-11-08T10:09:16.681Z,93.67
2023-11-08T10:10:16.651Z,92.60
2023-11-08T10:11:19.949Z,91.78
2023-11-08T10:12:17.652Z,93.32
2023-11-08T10:13:16.661Z,92.81
2023-11-08T10:14:16.647Z,93.63
2023-11-08T10:15:16.667Z,93.63
2023-11-08T10:16:16.714Z,93.43
2023-11-08T10:17:32.006Z,92.30
2023-11-08T10:19:33.528Z,92.50
2023-11-08T10:19:37.411Z,92.10
2023-11-08T10:20:17.727Z,91.01
2023-11-08T10:21:16.676Z,91.83
2023-11-08T10:22:16.746Z,93.73
2023-11-08T10:23:16.650Z,93.84
2023-11-08T10:24:16.617Z,92.91
2023-11-08T10:25:16.582Z,91.48
2023-11-08T10:26:16.573Z,91.38
2023-11-08T10:27:16.555Z,92.30
2023-11-08T10:28:16.568Z,92.40
2023-11-08T10:29:16.568Z,93.01
2023-11-08T10:30:16.578Z,93.59
2023-11-08T10:31:16.600Z,93.89
2023-11-08T10:32:16.562Z,93.65
2023-11-08T10:33:16.542Z,92.72
2023-11-08T10:34:16.558Z,91.29
2023-11-08T10:35:16.530Z,91.19
2023-11-08T10:36:16.506Z,89.86
2023-11-08T10:37:16.521Z,89.76
2023-11-08T10:38:16.536Z,89.45
2023-11-08T10:39:16.520Z,89.25
2023-11-08T10:40:16.520Z,89.35
2023-11-08T10:41:16.528Z,90.53
2023-11-08T10:42:16.553Z,91.29
2023-11-08T10:43:16.506Z,89.45
2023-11-08T10:44:16.495Z,89.41
2023-11-08T10:45:16.489Z,88.79
2023-11-08T10:46:16.487Z,89.72
2023-11-08T10:47:16.495Z,90.74
2023-11-08T10:48:16.628Z,90.23
2023-11-08T10:49:16.486Z,87.71
2023-11-08T10:50:16.501Z,87.00
2023-11-08T10:51:16.475Z,88.70
2023-11-08T10:52:16.521Z,87.53
2023-11-08T10:53:16.493Z,87.23
2023-11-08T10:54:16.448Z,87.79
2023-11-08T10:55:16.465Z,87.70
2023-11-08T10:56:16.417Z,88.82
2023-11-08T10:57:16.451Z,84.74
2023-11-08T10:58:16.428Z,85.45
2023-11-08T10:59:16.542Z,86.06
2023-11-08T11:00:16.407Z,86.88
2023-11-08T11:01:16.411Z,89.18
2023-11-08T11:02:16.385Z,86.88
2023-11-08T11:03:16.529Z,85.55
2023-11-08T11:04:16.485Z,83.92
2023-11-08T11:05:16.446Z,84.94
2023-11-08T11:06:16.375Z,85.14
2023-11-08T11:07:16.374Z,84.53
2023-11-08T11:08:16.403Z,85.96
2023-11-08T11:09:16.361Z,84.39
2023-11-08T11:10:16.456Z,85.41
2023-11-08T11:11:16.361Z,85.51
2023-11-08T11:12:16.319Z,85.82
2023-11-08T11:13:16.331Z,86.53
2023-11-08T11:14:16.341Z,84.12
2023-11-08T11:15:16.367Z,86.12
2023-11-08T11:16:23.600Z,86.53
2023-11-08T11:17:18.327Z,86.83
2023-11-08T11:18:16.347Z,86.83
2023-11-08T11:19:16.309Z,84.39
2023-11-08T11:20:16.306Z,86.53
2023-11-08T11:21:16.333Z,86.83
2023-11-08T11:22:16.283Z,86.02
2023-11-08T11:23:16.301Z,85.61
2023-11-08T11:24:16.295Z,86.43
2023-11-08T11:25:16.278Z,85.45
2023-11-08T11:26:16.294Z,84.49
2023-11-08T11:27:16.270Z,85.21
2023-11-08T11:28:16.261Z,84.74
2023-11-08T11:29:16.247Z,85.24
2023-11-08T11:30:16.413Z,86.57
2023-11-08T11:31:16.251Z,85.45
2023-11-08T11:32:16.288Z,83.81
2023-11-08T11:33:16.256Z,84.47
2023-11-08T11:34:16.247Z,83.95
2023-11-08T11:35:16.225Z,84.77
2023-11-08T11:36:16.207Z,85.89
2023-11-08T11:37:16.226Z,86.30
2023-11-08T11:38:16.213Z,86.82
2023-11-08T11:39:16.197Z,87.32
2023-11-08T11:40:16.223Z,87.12
2023-11-08T11:41:16.188Z,86.57
2023-11-08T11:42:16.190Z,85.49
2023-11-08T11:43:16.212Z,85.89
2023-11-08T11:44:16.197Z,85.22
2023-11-08T11:45:16.213Z,83.69
2023-11-08T11:46:16.156Z,84.36
2023-11-08T11:47:17.733Z,85.49
2023-11-08T11:48:16.360Z,86.30
2023-11-08T11:49:16.230Z,86.82
2023-11-08T11:50:16.191Z,87.63
2023-11-08T11:51:17.169Z,83.34
2023-11-08T11:52:16.150Z,83.95
2023-11-08T11:53:16.139Z,85.08
2023-11-08T11:54:16.184Z,86.82
2023-11-08T11:55:16.131Z,86.91
2023-11-08T11:56:16.112Z,85.89
2023-11-08T11:57:16.129Z,84.36
2023-11-08T11:58:16.181Z,84.41
2023-11-08T11:59:16.189Z,84.91
2023-11-08T12:00:16.145Z,85.63
2023-11-08T12:01:16.128Z,86.44
2023-11-08T12:02:16.103Z,84.81
2023-11-08T12:03:16.130Z,86.30
2023-11-08T12:04:16.227Z,86.61
2023-11-08T12:05:16.194Z,87.12
2023-11-08T12:06:16.085Z,85.18
2023-11-08T12:07:16.158Z,84.98
2023-11-08T12:08:16.071Z,85.38
2023-11-08T12:09:16.045Z,85.69
2023-11-08T12:10:16.053Z,84.57
2023-11-08T12:11:16.029Z,85.59
2023-11-08T12:12:16.035Z,84.36
2023-11-08T12:13:16.079Z,85.22
2023-11-08T12:14:16.041Z,85.22
2023-11-08T12:15:16.034Z,82.87
2023-11-08T12:16:16.018Z,84.20
2023-11-08T12:17:16.008Z,84.91
2023-11-08T12:18:16.016Z,83.89
2023-11-08T12:19:16.097Z,84.71
2023-11-08T12:20:16.010Z,85.42
2023-11-08T12:21:16.036Z,85.49
2023-11-08T12:22:16.017Z,86.30
2023-11-08T12:23:15.992Z,84.20
2023-11-08T12:24:15.956Z,84.81
2023-11-08T12:25:15.996Z,82.36
2023-11-08T12:26:16.010Z,82.81
2023-11-08T12:27:15.966Z,84.71
2023-11-08T12:28:16.005Z,84.41
2023-11-08T12:29:15.958Z,84.98
2023-11-08T12:30:15.994Z,84.88
2023-11-08T12:31:15.967Z,84.47
2023-11-08T12:32:15.930Z,84.67
2023-11-08T12:33:16.028Z,83.14
2023-11-08T12:34:16.032Z,81.20
2023-11-08T12:35:15.945Z,82.22
2023-11-08T12:36:15.924Z,82.93
2023-11-08T12:37:15.920Z,83.81
2023-11-08T12:38:15.928Z,83.30
2023-11-08T12:39:15.907Z,81.67
2023-11-08T12:40:15.937Z,82.49
2023-11-08T12:41:15.893Z,83.10
2023-11-08T12:42:15.906Z,80.04
2023-11-08T12:43:57.117Z,80.96
2023-11-08T12:44:15.917Z,82.39
2023-11-08T12:46:27.066Z,82.04
2023-11-08T12:46:37.111Z,82.75
2023-11-08T12:47:15.916Z,82.89
2023-11-08T12:48:15.866Z,83.57
2023-11-08T12:49:16.053Z,83.78
2023-11-08T12:50:15.873Z,83.51
2023-11-08T12:51:15.859Z,79.83
2023-11-08T12:52:15.847Z,81.57